createdAt,value
2024-05-09T00:03:10.988Z,100.00
2024-05-09T00:06:17.969Z,100.00
2024-05-09T00:09:23.961Z,100.00
2024-05-09T00:12:30.440Z,100.00
2024-05-09T00:15:37.091Z,100.00
2024-05-09T00:18:42.876Z,100.00
2024-05-09T00:21:48.832Z,100.00
2024-05-09T00:24:54.877Z,100.00
2024-05-09T00:28:00.736Z,100.00
2024-05-09T00:31:06.792Z,100.00
2024-05-09T00:34:13.225Z,100.00
2024-05-09T00:37:19.690Z,100.00
2024-05-09T00:40:35.597Z,100.00
2024-05-09T00:43:46.423Z,100.00
2024-05-09T00:46:54.982Z,100.00
2024-05-09T00:50:04.071Z,100.00
2024-05-09T00:53:15.491Z,100.00
2024-05-09T00:56:22.693Z,100.00
2024-05-09T00:59:30.390Z,100.00
2024-05-09T01:02:36.862Z,100.00
2024-05-09T01:05:44.429Z,100.00
2024-05-09T01:08:50.593Z,100.00
2024-05-09T01:11:56.842Z,100.00
2024-05-09T01:15:02.916Z,100.00
2024-05-09T01:18:13.235Z,100.00
2024-05-09T01:21:19.861Z,100.00
2024-05-09T01:24:25.949Z,100.00
2024-05-09T01:27:32.607Z,100.00
2024-05-09T01:30:39.080Z,100.00
2024-05-09T01:33:45.165Z,100.00
2024-05-09T01:36:51.292Z,100.00
2024-05-09T01:39:57.051Z,100.00
2024-05-09T01:43:02.421Z,100.00
2024-05-09T01:46:15.857Z,100.00
2024-05-09T01:49:22.331Z,100.00
2024-05-09T01:52:28.069Z,100.00
2024-05-09T01:55:33.718Z,100.00
2024-05-09T01:58:39.731Z,100.00
2024-05-09T02:01:56.458Z,100.00
2024-05-09T02:05:04.958Z,100.00
2024-05-09T02:08:15.868Z,100.00
2024-05-09T02:11:22.095Z,100.00
2024-05-09T02:14:28.476Z,100.00
2024-05-09T02:17:34.731Z,100.00
2024-05-09T02:20:41.971Z,100.00
2024-05-09T02:23:51.587Z,100.00
2024-05-09T02:26:57.612Z,100.00
2024-05-09T02:30:04.775Z,100.00
2024-05-09T02:33:14.706Z,100.00
2024-05-09T02:36:22.823Z,100.00
2024-05-09T02:39:29.047Z,100.00
2024-05-09T02:42:35.205Z,100.00
2024-05-09T02:45:41.357Z,100.00
2024-05-09T02:48:47.335Z,100.00
2024-05-09T02:51:53.454Z,100.00
2024-05-09T02:55:00.007Z,100.00
2024-05-09T02:58:07.832Z,100.00
2024-05-09T03:01:13.728Z,100.00
2024-05-09T03:04:19.942Z,100.00
2024-05-09T03:07:26.048Z,100.00
2024-05-09T03:10:36.291Z,100.00
2024-05-09T03:13:43.955Z,100.00
2024-05-09T03:16:49.865Z,100.00
2024-05-09T03:19:55.907Z,100.00
2024-05-09T03:23:01.920Z,100.00
2024-05-09T03:26:16.372Z,100.00
2024-05-09T03:29:22.870Z,100.00
2024-05-09T03:32:29.155Z,100.00
2024-05-09T03:35:35.076Z,100.00
2024-05-09T03:38:41.398Z,100.00
2024-05-09T03:41:47.136Z,100.00
2024-05-09T03:44:53.139Z,100.00
2024-05-09T03:47:59.257Z,100.00
2024-05-09T03:51:05.880Z,100.00
2024-05-09T03:54:11.786Z,100.00
2024-05-09T03:57:17.691Z,100.00
2024-05-09T04:00:31.381Z,100.00
2024-05-09T04:03:44.291Z,100.00
2024-05-09T04:06:50.384Z,100.00
2024-05-09T04:09:56.194Z,100.00
2024-05-09T04:13:02.168Z,100.00
2024-05-09T04:16:11.150Z,100.00
2024-05-09T04:19:17.067Z,100.00
2024-05-09T04:22:23.002Z,100.00
2024-05-09T04:25:29.125Z,100.00
2024-05-09T04:28:35.502Z,100.00
2024-05-09T04:31:41.502Z,100.00
2024-05-09T04:34:47.674Z,100.00
2024-05-09T04:37:53.531Z,100.00
2024-05-09T04:40:59.991Z,100.00
2024-05-09T04:44:06.040Z,100.00
2024-05-09T04:47:11.841Z,100.00
2024-05-09T04:50:25.464Z,100.00
2024-05-09T04:53:39.666Z,100.00
2024-05-09T04:56:45.855Z,100.00
2024-05-09T04:59:51.744Z,100.00
2024-05-09T05:02:57.929Z,100.00
2024-05-09T05:06:04.043Z,100.00
2024-05-09T05:09:10.098Z,100.00
2024-05-09T05:12:34.923Z,100.00
2024-05-09T05:15:41.622Z,100.00
2024-05-09T05:18:47.383Z,100.00
2024-05-09T05:21:53.545Z,100.00
2024-05-09T05:24:59.303Z,100.00
2024-05-09T05:28:06.056Z,100.00
2024-05-09T05:31:11.672Z,100.00
2024-05-09T05:34:17.656Z,100.00
2024-05-09T05:37:23.123Z,100.00
2024-05-09T05:40:36.047Z,100.00
2024-05-09T05:43:44.353Z,100.00
2024-05-09T05:46:51.110Z,100.00
2024-05-09T05:49:56.956Z,100.00
2024-05-09T05:53:02.562Z,100.00
2024-05-09T05:56:08.247Z,100.00
2024-05-09T05:59:15.457Z,100.00
2024-05-09T06:02:21.871Z,100.00
2024-05-09T06:05:27.921Z,100.00
2024-05-09T06:08:34.298Z,100.00
2024-05-09T06:11:41.461Z,100.00
2024-05-09T06:14:48.516Z,100.00
2024-05-09T06:17:54.640Z,100.00
2024-05-09T06:21:01.054Z,100.00
2024-05-09T06:24:07.125Z,100.00
2024-05-09T06:27:12.687Z,100.00
2024-05-09T06:30:25.465Z,100.00
2024-05-09T06:33:37.190Z,100.00
2024-05-09T06:36:43.681Z,100.00
2024-05-09T06:39:49.470Z,100.00
2024-05-09T06:42:57.876Z,100.00
2024-05-09T06:46:04.135Z,100.00
2024-05-09T06:49:12.084Z,100.00
2024-05-09T06:52:19.724Z,100.00
2024-05-09T06:55:26.066Z,100.00
2024-05-09T06:58:32.294Z,100.00
2024-05-09T07:01:38.548Z,100.00
2024-05-09T07:04:45.014Z,100.00
2024-05-09T07:07:51.298Z,100.00
2024-05-09T07:10:58.194Z,100.00
2024-05-09T07:14:04.322Z,100.00
2024-05-09T07:17:10.779Z,100.00
2024-05-09T07:20:23.537Z,100.00
2024-05-09T07:23:39.195Z,100.00
2024-05-09T07:26:44.953Z,100.00
2024-05-09T07:29:51.264Z,100.00
2024-05-09T07:32:58.099Z,100.00
2024-05-09T07:36:04.527Z,100.00
2024-05-09T07:39:10.811Z,98.72
2024-05-09T07:42:16.824Z,93.05
2024-05-09T07:45:41.700Z,88.89
2024-05-09T07:53:22.082Z,88.50
2024-05-09T07:55:25.193Z,85.17
2024-05-09T07:58:31.536Z,78.36
2024-05-09T08:01:38.015Z,78.19
2024-05-09T08:04:44.067Z,73.27
2024-05-09T08:07:50.804Z,65.23
2024-05-09T08:10:56.661Z,67.89
2024-05-09T08:14:02.573Z,70.21
2024-05-09T08:17:08.475Z,66.71
2024-05-09T08:20:22.528Z,68.27
2024-05-09T08:23:33.226Z,66.33
2024-05-09T08:26:39.012Z,68.11
2024-05-09T08:29:44.689Z,70.76
2024-05-09T08:32:50.919Z,66.08
2024-05-09T08:35:56.862Z,66.88
2024-05-09T08:39:02.672Z,65.36
2024-05-09T08:42:08.803Z,65.42
2024-05-09T08:45:14.775Z,66.65
2024-05-09T08:48:23.637Z,65.88
2024-05-09T08:51:30.114Z,65.63
2024-05-09T08:54:36.639Z,65.09
2024-05-09T08:57:42.898Z,66.12
2024-05-09T09:00:49.540Z,65.67
2024-05-09T09:03:56.179Z,69.58
2024-05-09T09:07:03.620Z,67.47
2024-05-09T09:10:12.944Z,64.32
2024-05-09T09:13:21.330Z,66.49
2024-05-09T09:16:36.831Z,63.55
2024-05-09T09:19:43.369Z,66.10
2024-05-09T09:22:49.267Z,63.57
2024-05-09T09:25:59.899Z,61.34
2024-05-09T09:29:05.822Z,61.95
2024-05-09T09:32:12.158Z,64.79
2024-05-09T09:35:18.053Z,64.45
2024-05-09T09:38:24.731Z,61.25
2024-05-09T09:41:33.422Z,60.97
2024-05-09T09:44:42.280Z,62.35
2024-05-09T09:47:56.576Z,59.95
2024-05-09T09:51:02.650Z,60.38
2024-05-09T09:57:14.940Z,60.56
2024-05-09T10:00:30.114Z,60.69
2024-05-09T10:03:39.138Z,58.36
2024-05-09T10:06:59.909Z,59.16
2024-05-09T10:10:07.082Z,58.66
2024-05-09T15:34:56.147Z,48.06
2024-05-09T15:38:03.802Z,47.36
2024-05-09T15:41:10.683Z,49.11
2024-05-09T15:44:16.638Z,48.36
2024-05-09T15:47:23.014Z,46.79
2024-05-09T15:50:36.779Z,48.53
2024-05-09T15:53:46.237Z,47.52
2024-05-09T15:56:51.764Z,46.47
2024-05-09T15:59:58.446Z,45.76
2024-05-09T16:03:05.014Z,46.65
2024-05-09T16:06:11.203Z,44.95
2024-05-09T16:09:17.855Z,49.25
2024-05-09T16:12:25.379Z,45.44
2024-05-09T16:15:32.136Z,44.95
2024-05-09T16:18:40.182Z,46.26
2024-05-09T16:21:46.209Z,47.56
2024-05-09T16:24:52.371Z,47.86
2024-05-09T16:27:58.457Z,46.45
2024-05-09T16:31:04.544Z,48.17
2024-05-09T16:34:11.130Z,49.83
2024-05-09T16:37:16.874Z,46.72
2024-05-09T16:40:30.341Z,46.77
2024-05-09T16:43:43.789Z,47.83
2024-05-09T16:46:49.882Z,48.95
2024-05-09T16:49:56.402Z,49.64
2024-05-09T16:53:03.593Z,49.96
2024-05-09T16:56:10.703Z,51.69
2024-05-09T16:59:16.999Z,53.50
2024-05-09T17:02:23.032Z,52.46
2024-05-09T17:05:29.912Z,51.61
2024-05-09T17:08:38.120Z,52.10
2024-05-09T17:11:44.321Z,53.95
2024-05-09T17:14:50.573Z,54.05
2024-05-09T17:17:56.961Z,55.10
2024-05-09T17:21:02.987Z,55.50
2024-05-09T17:24:08.925Z,55.18
2024-05-09T17:27:15.069Z,56.37
2024-05-09T17:30:28.798Z,55.75
2024-05-09T17:33:43.175Z,57.00
2024-05-09T17:36:49.543Z,58.43
2024-05-09T17:39:55.983Z,56.10
2024-05-09T17:43:02.510Z,58.66
2024-05-09T17:46:09.615Z,57.65
2024-05-09T17:49:16.067Z,57.97
2024-05-09T17:52:22.582Z,57.64
2024-05-09T17:55:29.216Z,58.72
2024-05-09T17:58:36.002Z,59.74
2024-05-09T18:01:42.449Z,60.91
2024-05-09T18:04:49.042Z,61.05
2024-05-09T18:07:55.572Z,60.30
2024-05-09T18:11:03.419Z,62.33
2024-05-09T18:14:10.024Z,59.92
2024-05-09T18:17:16.601Z,63.48
2024-05-09T18:20:32.598Z,62.52
2024-05-09T18:23:47.051Z,64.75
2024-05-09T18:26:54.037Z,64.71
2024-05-09T18:29:59.629Z,64.92
2024-05-09T18:33:07.842Z,64.95
2024-05-09T18:36:16.207Z,66.99
2024-05-09T18:39:23.331Z,66.33
2024-05-09T18:42:31.218Z,67.04
2024-05-09T18:45:38.674Z,67.92
2024-05-09T18:48:45.022Z,67.01
2024-05-09T18:51:50.845Z,66.75
2024-05-09T18:54:56.425Z,68.51
2024-05-09T18:58:02.581Z,68.70
2024-05-09T19:01:14.970Z,69.40
2024-05-09T19:04:21.471Z,70.48
2024-05-09T19:07:27.562Z,70.63
2024-05-09T19:10:35.115Z,71.66
2024-05-09T19:13:42.216Z,70.95
2024-05-09T19:16:47.889Z,71.91
2024-05-09T19:19:54.039Z,71.43
2024-05-09T19:23:00.222Z,71.25
2024-05-09T19:26:07.414Z,73.33
2024-05-09T19:29:13.703Z,73.05
2024-05-09T19:32:20.595Z,72.81
2024-05-09T19:35:26.828Z,75.75
2024-05-09T19:38:33.209Z,76.55
2024-05-09T19:41:38.566Z,76.99
2024-05-09T19:44:43.949Z,78.68
2024-05-09T19:47:50.127Z,78.89
2024-05-09T19:50:56.666Z,81.38
2024-05-09T19:54:02.928Z,79.94
2024-05-09T19:57:09.691Z,74.88
2024-05-09T20:00:21.957Z,77.12
2024-05-09T20:03:37.236Z,75.46
2024-05-09T20:06:43.603Z,75.93
2024-05-09T20:09:49.487Z,74.80
2024-05-09T20:12:55.512Z,74.10
2024-05-09T20:16:02.069Z,74.97
2024-05-09T20:19:08.385Z,81.07
2024-05-09T20:22:14.399Z,76.80
2024-05-09T20:25:20.589Z,81.47
2024-05-09T20:28:27.599Z,81.09
2024-05-09T20:31:34.197Z,83.71
2024-05-09T20:34:40.982Z,80.60
2024-05-09T20:37:47.107Z,76.74
2024-05-09T20:40:53.886Z,80.62
2024-05-09T20:44:02.418Z,81.11
2024-05-09T20:47:08.628Z,87.88
2024-05-09T20:50:23.799Z,84.83
2024-05-09T20:53:39.479Z,87.46
2024-05-09T20:56:45.695Z,95.48
2024-05-09T20:59:52.110Z,100.00
2024-05-09T21:02:58.812Z,100.00
2024-05-09T21:06:05.468Z,100.00
2024-05-09T21:09:11.241Z,100.00
2024-05-09T21:12:19.131Z,100.00
2024-05-09T21:15:24.824Z,100.00
2024-05-09T21:18:30.940Z,100.00
2024-05-09T21:21:41.318Z,100.00
2024-05-09T21:24:46.971Z,100.00
2024-05-09T21:27:53.327Z,100.00
2024-05-09T21:30:59.405Z,100.00
2024-05-09T21:34:05.606Z,100.00
2024-05-09T21:37:12.162Z,100.00
2024-05-09T21:40:27.107Z,100.00
2024-05-09T21:43:40.481Z,100.00
2024-05-09T21:46:46.637Z,100.00
2024-05-09T21:49:53.227Z,100.00
2024-05-09T21:52:59.317Z,100.00
2024-05-09T21:56:05.310Z,100.00
2024-05-09T21:59:11.386Z,100.00
2024-05-09T22:02:17.231Z,100.00
2024-05-09T22:05:23.240Z,100.00
2024-05-09T22:08:29.353Z,100.00
2024-05-09T22:11:35.345Z,100.00
2024-05-09T22:14:41.569Z,100.00
2024-05-09T22:17:48.248Z,100.00
2024-05-09T22:20:55.525Z,100.00
2024-05-09T22:24:01.293Z,100.00
2024-05-09T22:27:09.053Z,100.00
2024-05-09T22:30:21.260Z,100.00
2024-05-09T22:33:34.025Z,100.00
2024-05-09T22:36:39.724Z,100.00
2024-05-09T22:39:46.085Z,100.00
2024-05-09T22:42:51.897Z,100.00
2024-05-09T22:45:58.012Z,100.00
2024-05-09T22:49:04.271Z,100.00
2024-05-09T22:52:10.216Z,100.00
2024-05-09T22:55:16.607Z,100.00
2024-05-09T22:58:23.894Z,100.00
2024-05-09T23:01:30.507Z,100.00
2024-05-09T23:04:39.039Z,100.00
2024-05-09T23:07:45.055Z,100.00
2024-05-09T23:10:51.269Z,100.00
2024-05-09T23:13:57.452Z,100.00
2024-05-09T23:17:03.205Z,100.00
2024-05-09T23:20:11.595Z,100.00
2024-05-09T23:23:18.542Z,100.00
2024-05-09T23:26:24.230Z,100.00
2024-05-09T23:29:29.776Z,100.00
2024-05-09T23:32:36.550Z,100.00
2024-05-09T23:35:44.557Z,100.00
2024-05-09T23:38:50.664Z,100.00
2024-05-09T23:41:56.748Z,100.00
2024-05-09T23:45:02.748Z,100.00
2024-05-09T23:48:09.610Z,100.00
2024-05-09T23:51:15.769Z,100.00
2024-05-09T23:54:21.643Z,100.00
2024-05-09T23:57:27.302Z,100.00
